sensor_id;sensor_type;location;lat;lon;timestamp;pressure;altitude;pressure_sealevel;temperature;humidity
76766;BME280;65707;52.362;6.588;2024-02-26T00:02:12;100162.72;;;5.93;82.70
76766;BME280;65707;52.362;6.588;2024-02-26T00:04:39;100157.72;;;5.90;82.61
76766;BME280;65707;52.362;6.588;2024-02-26T00:07:06;100168.75;;;5.78;82.70
76766;BME280;65707;52.362;6.588;2024-02-26T00:09:33;100159.16;;;5.85;83.54
76766;BME280;65707;52.362;6.588;2024-02-26T00:12:02;100166.22;;;5.76;83.22
76766;BME280;65707;52.362;6.588;2024-02-26T00:14:30;100171.03;;;5.73;83.41
76766;BME280;65707;52.362;6.588;2024-02-26T00:16:56;100163.63;;;5.84;82.90
76766;BME280;65707;52.362;6.588;2024-02-26T00:19:24;100163.63;;;5.84;83.15
76766;BME280;65707;52.362;6.588;2024-02-26T00:21:51;100162.97;;;5.82;83.31
76766;BME280;65707;52.362;6.588;2024-02-26T00:24:19;100169.03;;;5.92;82.53
76766;BME280;65707;52.362;6.588;2024-02-26T00:26:45;100174.00;;;5.87;82.80
76766;BME280;65707;52.362;6.588;2024-02-26T00:29:18;100173.47;;;5.84;83.11
76766;BME280;65707;52.362;6.588;2024-02-26T00:31:44;100182.97;;;5.86;82.73
76766;BME280;65707;52.362;6.588;2024-02-26T00:34:11;100168.97;;;5.84;81.92
76766;BME280;65707;52.362;6.588;2024-02-26T00:36:39;100183.50;;;5.90;82.23
76766;BME280;65707;52.362;6.588;2024-02-26T00:39:06;100190.25;;;5.84;82.69
76766;BME280;65707;52.362;6.588;2024-02-26T00:41:32;100188.19;;;5.78;82.03
76766;BME280;65707;52.362;6.588;2024-02-26T00:43:59;100197.41;;;5.66;82.52
76766;BME280;65707;52.362;6.588;2024-02-26T00:46:26;100185.22;;;5.81;82.38
76766;BME280;65707;52.362;6.588;2024-02-26T00:48:52;100186.28;;;5.71;82.49
76766;BME280;65707;52.362;6.588;2024-02-26T00:51:19;100187.81;;;5.73;83.27
76766;BME280;65707;52.362;6.588;2024-02-26T00:53:47;100177.56;;;5.61;82.38
76766;BME280;65707;52.362;6.588;2024-02-26T00:56:14;100182.34;;;5.75;82.71
76766;BME280;65707;52.362;6.588;2024-02-26T00:58:41;100180.75;;;5.64;82.15
76766;BME280;65707;52.362;6.588;2024-02-26T01:01:07;100182.06;;;5.60;83.13
76766;BME280;65707;52.362;6.588;2024-02-26T01:03:34;100182.44;;;5.65;82.17
76766;BME280;65707;52.362;6.588;2024-02-26T01:06:01;100180.75;;;5.64;82.29
76766;BME280;65707;52.362;6.588;2024-02-26T01:08:28;100182.38;;;5.57;82.44
76766;BME280;65707;52.362;6.588;2024-02-26T01:10:58;100184.25;;;5.47;83.19
76766;BME280;65707;52.362;6.588;2024-02-26T01:13:24;100188.19;;;5.61;82.47
76766;BME280;65707;52.362;6.588;2024-02-26T01:15:51;100188.34;;;5.59;82.75
76766;BME280;65707;52.362;6.588;2024-02-26T01:18:18;100202.88;;;5.47;82.39
76766;BME280;65707;52.362;6.588;2024-02-26T01:20:45;100195.97;;;5.54;82.23
76766;BME280;65707;52.362;6.588;2024-02-26T01:23:12;100202.88;;;5.47;82.96
76766;BME280;65707;52.362;6.588;2024-02-26T01:25:39;100199.22;;;5.48;82.01
76766;BME280;65707;52.362;6.588;2024-02-26T01:28:07;100208.19;;;5.47;82.72
76766;BME280;65707;52.362;6.588;2024-02-26T01:30:33;100204.19;;;5.43;82.85
76766;BME280;65707;52.362;6.588;2024-02-26T01:33:00;100209.78;;;5.23;83.85
76766;BME280;65707;52.362;6.588;2024-02-26T01:35:27;100206.69;;;5.27;83.20
76766;BME280;65707;52.362;6.588;2024-02-26T01:37:53;100195.81;;;5.38;82.97
76766;BME280;65707;52.362;6.588;2024-02-26T01:40:20;100192.78;;;5.33;83.65
76766;BME280;65707;52.362;6.588;2024-02-26T01:42:47;100188.91;;;5.28;83.78
76766;BME280;65707;52.362;6.588;2024-02-26T01:45:16;100190.72;;;5.27;84.13
76766;BME280;65707;52.362;6.588;2024-02-26T01:47:48;100183.75;;;5.26;83.86
76766;BME280;65707;52.362;6.588;2024-02-26T01:50:16;100174.47;;;5.30;83.52
76766;BME280;65707;52.362;6.588;2024-02-26T01:52:44;100190.94;;;5.16;83.71
76766;BME280;65707;52.362;6.588;2024-02-26T01:55:13;100186.50;;;5.25;84.49
76766;BME280;65707;52.362;6.588;2024-02-26T01:57:40;100185.31;;;5.37;84.00
76766;BME280;65707;52.362;6.588;2024-02-26T02:00:09;100176.03;;;5.23;83.52
76766;BME280;65707;52.362;6.588;2024-02-26T02:02:38;100183.28;;;5.31;83.72
76766;BME280;65707;52.362;6.588;2024-02-26T02:05:08;100169.81;;;5.32;84.10
76766;BME280;65707;52.362;6.588;2024-02-26T02:07:36;100172.25;;;5.26;84.70
76766;BME280;65707;52.362;6.588;2024-02-26T02:10:03;100179.09;;;5.28;84.23
76766;BME280;65707;52.362;6.588;2024-02-26T02:12:32;100174.00;;;5.52;83.01
76766;BME280;65707;52.362;6.588;2024-02-26T02:14:59;100186.75;;;5.31;84.07
76766;BME280;65707;52.362;6.588;2024-02-26T02:17:27;100184.25;;;5.47;83.69
76766;BME280;65707;52.362;6.588;2024-02-26T02:19:56;100200.75;;;5.33;83.25
76766;BME280;65707;52.362;6.588;2024-02-26T02:22:23;100201.44;;;5.35;83.88
76766;BME280;65707;52.362;6.588;2024-02-26T02:24:52;100211.25;;;5.35;83.53
76766;BME280;65707;52.362;6.588;2024-02-26T02:27:19;100211.56;;;5.49;84.08
76766;BME280;65707;52.362;6.588;2024-02-26T02:29:47;100213.97;;;5.43;83.78
76766;BME280;65707;52.362;6.588;2024-02-26T02:32:15;100215.56;;;5.53;82.40
76766;BME280;65707;52.362;6.588;2024-02-26T02:34:44;100218.31;;;5.61;82.70
76766;BME280;65707;52.362;6.588;2024-02-26T02:37:11;100220.13;;;5.61;82.62
76766;BME280;65707;52.362;6.588;2024-02-26T02:39:40;100218.47;;;5.42;83.54
76766;BME280;65707;52.362;6.588;2024-02-26T02:42:08;100215.25;;;5.56;83.43
76766;BME280;65707;52.362;6.588;2024-02-26T02:44:35;100211.47;;;5.59;83.08
76766;BME280;65707;52.362;6.588;2024-02-26T02:47:02;100204.16;;;5.61;83.00
76766;BME280;65707;52.362;6.588;2024-02-26T02:49:28;100210.94;;;5.55;82.22
76766;BME280;65707;52.362;6.588;2024-02-26T02:51:55;100213.38;;;5.49;82.65
76766;BME280;65707;52.362;6.588;2024-02-26T02:54:22;100217.56;;;5.51;82.84
76766;BME280;65707;52.362;6.588;2024-02-26T02:56:50;100219.31;;;5.60;83.01
76766;BME280;65707;52.362;6.588;2024-02-26T02:59:17;100224.31;;;5.63;82.48
76766;BME280;65707;52.362;6.588;2024-02-26T03:01:44;100228.06;;;5.53;82.76
76766;BME280;65707;52.362;6.588;2024-02-26T03:04:11;100231.16;;;5.66;83.00
76766;BME280;65707;52.362;6.588;2024-02-26T03:06:37;100244.22;;;5.59;82.52
76766;BME280;65707;52.362;6.588;2024-02-26T03:09:04;100249.34;;;5.53;83.55
76766;BME280;65707;52.362;6.588;2024-02-26T03:11:31;100251.25;;;5.60;83.71
76766;BME280;65707;52.362;6.588;2024-02-26T03:13:59;100241.97;;;5.64;82.54
76766;BME280;65707;52.362;6.588;2024-02-26T03:16:26;100242.72;;;5.57;82.67
76766;BME280;65707;52.362;6.588;2024-02-26T03:18:53;100246.06;;;5.59;82.93
76766;BME280;65707;52.362;6.588;2024-02-26T03:21:19;100263.72;;;5.77;82.25
76766;BME280;65707;52.362;6.588;2024-02-26T03:23:46;100261.28;;;5.66;81.59
76766;BME280;65707;52.362;6.588;2024-02-26T03:26:13;100260.91;;;5.61;82.55
76766;BME280;65707;52.362;6.588;2024-02-26T03:28:40;100261.59;;;5.63;81.87
76766;BME280;65707;52.362;6.588;2024-02-26T03:31:08;100260.28;;;5.67;81.90
76766;BME280;65707;52.362;6.588;2024-02-26T03:33:35;100260.13;;;5.69;82.50
76766;BME280;65707;52.362;6.588;2024-02-26T03:36:02;100260.81;;;5.71;83.00
76766;BME280;65707;52.362;6.588;2024-02-26T03:38:30;100265.69;;;5.75;81.76
76766;BME280;65707;52.362;6.588;2024-02-26T03:40:56;100264.03;;;5.74;82.27
76766;BME280;65707;52.362;6.588;2024-02-26T03:43:23;100259.66;;;5.73;81.82
76766;BME280;65707;52.362;6.588;2024-02-26T03:45:50;100265.50;;;5.86;80.90
76766;BME280;65707;52.362;6.588;2024-02-26T03:48:18;100265.06;;;5.81;81.11
76766;BME280;65707;52.362;6.588;2024-02-26T03:50:44;100271.28;;;5.82;81.65
76766;BME280;65707;52.362;6.588;2024-02-26T03:53:11;100278.25;;;5.83;81.70
76766;BME280;65707;52.362;6.588;2024-02-26T03:55:39;100269.69;;;5.89;81.46
76766;BME280;65707;52.362;6.588;2024-02-26T03:58:07;100268.84;;;5.88;80.96
76766;BME280;65707;52.362;6.588;2024-02-26T04:00:33;100274.78;;;6.00;80.99
76766;BME280;65707;52.362;6.588;2024-02-26T04:03:00;100274.31;;;5.87;81.24
76766;BME280;65707;52.362;6.588;2024-02-26T04:05:28;100272.50;;;5.87;81.95
76766;BME280;65707;52.362;6.588;2024-02-26T04:07:55;100280.50;;;5.87;81.65
76766;BME280;65707;52.362;6.588;2024-02-26T04:10:21;100286.94;;;5.85;81.93
76766;BME280;65707;52.362;6.588;2024-02-26T04:12:48;100291.41;;;5.84;81.83
76766;BME280;65707;52.362;6.588;2024-02-26T04:15:15;100296.31;;;5.89;82.00
76766;BME280;65707;52.362;6.588;2024-02-26T04:17:42;100290.31;;;6.04;80.90
76766;BME280;65707;52.362;6.588;2024-02-26T04:20:13;100294.53;;;5.97;81.02
76766;BME280;65707;52.362;6.588;2024-02-26T04:22:42;100304.16;;;5.90;81.59
76766;BME280;65707;52.362;6.588;2024-02-26T04:25:09;100304.16;;;5.90;81.55
76766;BME280;65707;52.362;6.588;2024-02-26T04:27:36;100296.16;;;5.90;81.58
76766;BME280;65707;52.362;6.588;2024-02-26T04:30:04;100301.56;;;5.98;81.75
76766;BME280;65707;52.362;6.588;2024-02-26T04:32:31;100304.22;;;5.98;81.75
76766;BME280;65707;52.362;6.588;2024-02-26T04:35:02;100306.44;;;6.03;81.66
76766;BME280;65707;52.362;6.588;2024-02-26T04:37:29;100302.38;;;5.99;81.93
76766;BME280;65707;52.362;6.588;2024-02-26T04:39:59;100304.22;;;5.98;81.47
76766;BME280;65707;52.362;6.588;2024-02-26T04:42:26;100302.00;;;5.94;81.90
76766;BME280;65707;52.362;6.588;2024-02-26T04:44:54;100311.22;;;5.99;81.48
76766;BME280;65707;52.362;6.588;2024-02-26T04:47:21;100316.31;;;5.93;81.75
76766;BME280;65707;52.362;6.588;2024-02-26T04:49:49;100315.69;;;5.99;81.87
76766;BME280;65707;52.362;6.588;2024-02-26T04:52:15;100319.34;;;5.98;81.46
76766;BME280;65707;52.362;6.588;2024-02-26T04:54:42;100318.91;;;6.02;81.16
76766;BME280;65707;52.362;6.588;2024-02-26T04:57:10;100327.59;;;6.04;81.07
76766;BME280;65707;52.362;6.588;2024-02-26T04:59:37;100330.06;;;5.88;81.43
76766;BME280;65707;52.362;6.588;2024-02-26T05:02:03;100334.66;;;6.13;81.18
76766;BME280;65707;52.362;6.588;2024-02-26T05:04:30;100331.38;;;6.02;81.15
76766;BME280;65707;52.362;6.588;2024-02-26T05:06:57;100327.97;;;6.09;80.90
76766;BME280;65707;52.362;6.588;2024-02-26T05:09:23;100335.50;;;6.14;80.77
76766;BME280;65707;52.362;6.588;2024-02-26T05:11:50;100338.22;;;6.04;80.75
76766;BME280;65707;52.362;6.588;2024-02-26T05:14:18;100336.69;;;6.19;80.78
76766;BME280;65707;52.362;6.588;2024-02-26T05:16:45;100340.22;;;6.20;80.42
76766;BME280;65707;52.362;6.588;2024-02-26T05:19:12;100336.69;;;6.02;81.30
76766;BME280;65707;52.362;6.588;2024-02-26T05:21:39;100340.28;;;6.10;80.55
76766;BME280;65707;52.362;6.588;2024-02-26T05:24:06;100339.66;;;6.16;80.70
76766;BME280;65707;52.362;6.588;2024-02-26T05:26:33;100344.91;;;6.08;80.85
76766;BME280;65707;52.362;6.588;2024-02-26T05:28:59;100331.66;;;6.34;79.72
76766;BME280;65707;52.362;6.588;2024-02-26T05:31:27;100338.66;;;6.35;79.63
76766;BME280;65707;52.362;6.588;2024-02-26T05:33:55;100342.72;;;6.21;80.27
76766;BME280;65707;52.362;6.588;2024-02-26T05:36:21;100336.38;;;6.22;79.97
76766;BME280;65707;52.362;6.588;2024-02-26T05:38:48;100336.38;;;6.40;79.94
76766;BME280;65707;52.362;6.588;2024-02-26T05:41:16;100354.09;;;6.31;79.57
76766;BME280;65707;52.362;6.588;2024-02-26T05:43:48;100352.22;;;6.42;79.65
76766;BME280;65707;52.362;6.588;2024-02-26T05:46:16;100354.81;;;6.16;79.72
76766;BME280;65707;52.362;6.588;2024-02-26T05:48:44;100357.63;;;6.32;79.86
76766;BME280;65707;52.362;6.588;2024-02-26T05:51:11;100363.09;;;6.30;79.62
76766;BME280;65707;52.362;6.588;2024-02-26T05:53:37;100361.34;;;6.39;79.30
76766;BME280;65707;52.362;6.588;2024-02-26T05:56:05;100362.94;;;6.32;79.81
76766;BME280;65707;52.362;6.588;2024-02-26T05:58:32;100368.44;;;6.30;80.20
76766;BME280;65707;52.362;6.588;2024-02-26T06:00:59;100375.97;;;6.35;79.55
76766;BME280;65707;52.362;6.588;2024-02-26T06:03:26;100372.31;;;6.36;79.69
76766;BME280;65707;52.362;6.588;2024-02-26T06:05:54;100372.84;;;6.40;79.50
76766;BME280;65707;52.362;6.588;2024-02-26T06:08:21;100377.13;;;6.32;79.81
76766;BME280;65707;52.362;6.588;2024-02-26T06:10:48;100389.97;;;6.37;79.69
76766;BME280;65707;52.362;6.588;2024-02-26T06:13:14;100388.66;;;6.41;79.50
76766;BME280;65707;52.362;6.588;2024-02-26T06:15:41;100390.91;;;6.46;79.76
76766;BME280;65707;52.362;6.588;2024-02-26T06:18:08;100389.91;;;6.47;79.42
76766;BME280;65707;52.362;6.588;2024-02-26T06:20:34;100389.13;;;6.37;79.64
76766;BME280;65707;52.362;6.588;2024-02-26T06:23:03;100395.53;;;6.44;79.63
76766;BME280;65707;52.362;6.588;2024-02-26T06:25:29;100412.81;;;6.40;80.26
76766;BME280;65707;52.362;6.588;2024-02-26T06:27:57;100400.41;;;6.48;80.00
76766;BME280;65707;52.362;6.588;2024-02-26T06:30:24;100409.56;;;6.46;80.08
76766;BME280;65707;52.362;6.588;2024-02-26T06:32:51;100402.75;;;6.51;79.57
76766;BME280;65707;52.362;6.588;2024-02-26T06:35:18;100397.44;;;6.51;79.44
76766;BME280;65707;52.362;6.588;2024-02-26T06:37:44;100408.94;;;6.52;79.91
76766;BME280;65707;52.362;6.588;2024-02-26T06:40:12;100408.00;;;6.43;79.94
76766;BME280;65707;52.362;6.588;2024-02-26T06:42:39;100410.75;;;6.33;80.40
76766;BME280;65707;52.362;6.588;2024-02-26T06:45:06;100411.84;;;6.41;80.53
76766;BME280;65707;52.362;6.588;2024-02-26T06:47:33;100421.41;;;6.33;80.19
76766;BME280;65707;52.362;6.588;2024-02-26T06:50:00;100419.53;;;6.44;80.05
76766;BME280;65707;52.362;6.588;2024-02-26T06:52:27;100418.34;;;6.28;80.78
76766;BME280;65707;52.362;6.588;2024-02-26T06:54:53;100419.97;;;6.39;80.24
76766;BME280;65707;52.362;6.588;2024-02-26T06:57:22;100418.44;;;6.37;80.39
76766;BME280;65707;52.362;6.588;2024-02-26T06:59:49;100420.78;;;6.40;80.36
76766;BME280;65707;52.362;6.588;2024-02-26T07:02:15;100422.50;;;6.41;80.21
76766;BME280;65707;52.362;6.588;2024-02-26T07:04:42;100422.94;;;6.36;80.21
76766;BME280;65707;52.362;6.588;2024-02-26T07:07:09;100431.75;;;6.37;80.21
76766;BME280;65707;52.362;6.588;2024-02-26T07:09:36;100438.78;;;6.38;80.40
76766;BME280;65707;52.362;6.588;2024-02-26T07:12:03;100439.69;;;6.46;80.09
76766;BME280;65707;52.362;6.588;2024-02-26T07:14:31;100438.41;;;6.32;80.27
76766;BME280;65707;52.362;6.588;2024-02-26T07:16:59;100440.28;;;6.40;79.98
76766;BME280;65707;52.362;6.588;2024-02-26T07:19:26;100453.72;;;6.48;80.44
76766;BME280;65707;52.362;6.588;2024-02-26T07:21:52;100460.25;;;6.54;80.15
76766;BME280;65707;52.362;6.588;2024-02-26T07:24:19;100471.91;;;6.53;79.82
76766;BME280;65707;52.362;6.588;2024-02-26T07:26:46;100469.47;;;6.42;79.95
76766;BME280;65707;52.362;6.588;2024-02-26T07:29:12;100465.19;;;6.31;80.74
76766;BME280;65707;52.362;6.588;2024-02-26T07:31:40;100467.78;;;6.41;80.01
76766;BME280;65707;52.362;6.588;2024-02-26T07:34:07;100470.75;;;6.38;80.27
76766;BME280;65707;52.362;6.588;2024-02-26T07:36:34;100476.66;;;6.31;80.51
76766;BME280;65707;52.362;6.588;2024-02-26T07:39:01;100470.22;;;6.34;80.96
76766;BME280;65707;52.362;6.588;2024-02-26T07:41:28;100465.78;;;6.43;80.55
76766;BME280;65707;52.362;6.588;2024-02-26T07:43:54;100480.19;;;6.50;79.75
76766;BME280;65707;52.362;6.588;2024-02-26T07:46:21;100478.09;;;6.53;80.25
76766;BME280;65707;52.362;6.588;2024-02-26T07:48:49;100467.88;;;6.49;80.40
76766;BME280;65707;52.362;6.588;2024-02-26T07:51:16;100470.84;;;6.46;80.39
76766;BME280;65707;52.362;6.588;2024-02-26T07:53:43;100461.63;;;6.58;80.21
76766;BME280;65707;52.362;6.588;2024-02-26T07:56:09;100472.38;;;6.66;80.31
76766;BME280;65707;52.362;6.588;2024-02-26T07:58:36;100469.53;;;6.50;80.56
76766;BME280;65707;52.362;6.588;2024-02-26T08:01:04;100482.47;;;6.45;81.04
76766;BME280;65707;52.362;6.588;2024-02-26T08:03:30;100482.25;;;6.38;81.63
76766;BME280;65707;52.362;6.588;2024-02-26T08:05:58;100480.19;;;6.50;81.41
76766;BME280;65707;52.362;6.588;2024-02-26T08:08:25;100491.63;;;6.42;81.91
76766;BME280;65707;52.362;6.588;2024-02-26T08:10:52;100484.38;;;6.52;81.56
76766;BME280;65707;52.362;6.588;2024-02-26T08:13:18;100493.63;;;6.58;81.23
76766;BME280;65707;52.362;6.588;2024-02-26T08:15:45;100494.47;;;6.58;81.25
76766;BME280;65707;52.362;6.588;2024-02-26T08:18:12;100497.78;;;6.60;81.29
76766;BME280;65707;52.362;6.588;2024-02-26T08:20:38;100499.84;;;6.49;81.62
76766;BME280;65707;52.362;6.588;2024-02-26T08:23:06;100503.13;;;6.60;81.25
76766;BME280;65707;52.362;6.588;2024-02-26T08:25:33;100504.13;;;6.59;81.42
76766;BME280;65707;52.362;6.588;2024-02-26T08:28:00;100506.41;;;6.72;81.19
76766;BME280;65707;52.362;6.588;2024-02-26T08:30:26;100511.75;;;6.72;81.16
76766;BME280;65707;52.362;6.588;2024-02-26T08:32:53;100506.72;;;6.86;80.20
76766;BME280;65707;52.362;6.588;2024-02-26T08:35:20;100509.59;;;6.93;80.23
76766;BME280;65707;52.362;6.588;2024-02-26T08:37:47;100507.31;;;6.80;80.15
76766;BME280;65707;52.362;6.588;2024-02-26T08:40:15;100509.22;;;6.88;80.26
76766;BME280;65707;52.362;6.588;2024-02-26T08:42:42;100517.47;;;6.94;80.05
76766;BME280;65707;52.362;6.588;2024-02-26T08:45:09;100516.16;;;6.98;79.72
76766;BME280;65707;52.362;6.588;2024-02-26T08:47:36;100522.16;;;7.18;78.60
76766;BME280;65707;52.362;6.588;2024-02-26T08:50:04;100517.81;;;7.17;78.50
76766;BME280;65707;52.362;6.588;2024-02-26T08:52:31;100520.72;;;7.06;78.89
76766;BME280;65707;52.362;6.588;2024-02-26T08:54:58;100533.97;;;6.98;78.82
76766;BME280;65707;52.362;6.588;2024-02-26T08:57:26;100532.16;;;6.98;78.85
76766;BME280;65707;52.362;6.588;2024-02-26T08:59:53;100534.75;;;7.08;78.91
76766;BME280;65707;52.362;6.588;2024-02-26T09:02:19;100531.91;;;7.09;78.42
76766;BME280;65707;52.362;6.588;2024-02-26T09:04:46;100533.59;;;6.93;79.14
76766;BME280;65707;52.362;6.588;2024-02-26T09:07:13;100532.78;;;7.10;78.70
76766;BME280;65707;52.362;6.588;2024-02-26T09:09:39;100536.16;;;7.20;77.73
76766;BME280;65707;52.362;6.588;2024-02-26T09:12:05;100533.19;;;7.23;77.93
76766;BME280;65707;52.362;6.588;2024-02-26T09:14:34;100546.22;;;7.26;77.33
76766;BME280;65707;52.362;6.588;2024-02-26T09:17:00;100541.72;;;7.26;77.32
76766;BME280;65707;52.362;6.588;2024-02-26T09:19:27;100546.69;;;7.21;78.25
76766;BME280;65707;52.362;6.588;2024-02-26T09:21:54;100552.25;;;7.10;77.83
76766;BME280;65707;52.362;6.588;2024-02-26T09:24:22;100561.19;;;7.19;78.12
76766;BME280;65707;52.362;6.588;2024-02-26T09:26:49;100559.47;;;7.35;77.85
76766;BME280;65707;52.362;6.588;2024-02-26T09:29:16;100567.13;;;7.30;77.21
76766;BME280;65707;52.362;6.588;2024-02-26T09:31:45;100561.25;;;7.27;76.94
76766;BME280;65707;52.362;6.588;2024-02-26T09:34:12;100566.22;;;7.22;77.54
76766;BME280;65707;52.362;6.588;2024-02-26T09:36:39;100567.31;;;7.37;77.65
76766;BME280;65707;52.362;6.588;2024-02-26T09:39:06;100575.88;;;7.23;77.84
76766;BME280;65707;52.362;6.588;2024-02-26T09:41:36;100578.88;;;7.20;78.97
76766;BME280;65707;52.362;6.588;2024-02-26T09:44:04;100586.88;;;7.20;78.61
76766;BME280;65707;52.362;6.588;2024-02-26T09:46:31;100587.03;;;7.18;78.36
76766;BME280;65707;52.362;6.588;2024-02-26T09:48:59;100587.47;;;7.31;78.58
76766;BME280;65707;52.362;6.588;2024-02-26T09:51:26;100580.31;;;7.32;78.19
76766;BME280;65707;52.362;6.588;2024-02-26T09:53:54;100597.16;;;7.15;78.84
76766;BME280;65707;52.362;6.588;2024-02-26T09:56:26;100606.56;;;7.19;79.13
76766;BME280;65707;52.362;6.588;2024-02-26T09:58:55;100608.81;;;7.14;79.13
76766;BME280;65707;52.362;6.588;2024-02-26T10:01:24;100608.97;;;7.30;78.84
76766;BME280;65707;52.362;6.588;2024-02-26T10:03:55;100612.03;;;7.35;78.66
76766;BME280;65707;52.362;6.588;2024-02-26T10:06:26;100617.06;;;7.38;78.44
76766;BME280;65707;52.362;6.588;2024-02-26T10:08:53;100610.88;;;7.55;77.92
76766;BME280;65707;52.362;6.588;2024-02-26T10:11:22;100621.63;;;7.63;77.51
76766;BME280;65707;52.362;6.588;2024-02-26T10:13:50;100616.06;;;7.56;77.05
76766;BME280;65707;52.362;6.588;2024-02-26T10:16:17;100621.16;;;7.50;76.98
76766;BME280;65707;52.362;6.588;2024-02-26T10:18:47;100617.81;;;7.48;76.38
76766;BME280;65707;52.362;6.588;2024-02-26T10:21:16;100633.09;;;7.38;78.26
76766;BME280;65707;52.362;6.588;2024-02-26T10:23:46;100634.91;;;7.55;77.75
76766;BME280;65707;52.362;6.588;2024-02-26T10:26:14;100638.09;;;7.58;76.88
76766;BME280;65707;52.362;6.588;2024-02-26T10:28:42;100649.53;;;7.51;77.68
76766;BME280;65707;52.362;6.588;2024-02-26T10:31:10;100648.41;;;7.53;77.49
76766;BME280;65707;52.362;6.588;2024-02-26T10:33:38;100653.44;;;7.56;77.42
76766;BME280;65707;52.362;6.588;2024-02-26T10:36:06;100664.66;;;7.60;77.79
76766;BME280;65707;52.362;6.588;2024-02-26T10:38:34;100670.00;;;7.60;78.20
76766;BME280;65707;52.362;6.588;2024-02-26T10:41:03;100667.31;;;7.60;78.38
76766;BME280;65707;52.362;6.588;2024-02-26T10:43:30;100675.00;;;7.63;78.30
76766;BME280;65707;52.362;6.588;2024-02-26T10:45:57;100668.81;;;7.80;76.66
76766;BME280;65707;52.362;6.588;2024-02-26T10:48:24;100667.75;;;7.73;76.88
76766;BME280;65707;52.362;6.588;2024-02-26T10:50:51;100674.09;;;7.72;77.59
76766;BME280;65707;52.362;6.588;2024-02-26T10:53:20;100677.91;;;7.69;78.36
76766;BME280;65707;52.362;6.588;2024-02-26T10:55:52;100688.53;;;7.61;78.06
76766;BME280;65707;52.362;6.588;2024-02-26T10:58:23;100693.25;;;7.67;77.11
76766;BME280;65707;52.362;6.588;2024-02-26T11:00:52;100683.72;;;7.65;77.78
76766;BME280;65707;52.362;6.588;2024-02-26T11:03:19;100697.28;;;7.71;78.34
76766;BME280;65707;52.362;6.588;2024-02-26T11:05:48;100692.94;;;7.70;77.46
76766;BME280;65707;52.362;6.588;2024-02-26T11:08:16;100695.06;;;7.67;77.47
76766;BME280;65707;52.362;6.588;2024-02-26T11:10:46;100698.75;;;7.66;77.79
76766;BME280;65707;52.362;6.588;2024-02-26T11:13:14;100698.91;;;7.64;78.13
76766;BME280;65707;52.362;6.588;2024-02-26T11:15:44;100705.16;;;7.55;78.30
76766;BME280;65707;52.362;6.588;2024-02-26T11:18:13;100702.88;;;7.43;78.67
76766;BME280;65707;52.362;6.588;2024-02-26T11:20:41;100711.56;;;7.62;78.48
76766;BME280;65707;52.362;6.588;2024-02-26T11:23:09;100702.84;;;7.60;78.36
76766;BME280;65707;52.362;6.588;2024-02-26T11:25:36;100707.28;;;7.52;79.10
76766;BME280;65707;52.362;6.588;2024-02-26T11:28:06;100707.38;;;7.60;78.40
76766;BME280;65707;52.362;6.588;2024-02-26T11:30:39;100718.44;;;7.47;79.08
76766;BME280;65707;52.362;6.588;2024-02-26T11:33:11;100723.63;;;7.49;80.00
76766;BME280;65707;52.362;6.588;2024-02-26T11:35:39;100708.81;;;7.54;79.83
76766;BME280;65707;52.362;6.588;2024-02-26T11:38:06;100715.88;;;7.63;79.50
76766;BME280;65707;52.362;6.588;2024-02-26T11:40:37;100722.53;;;7.59;79.09
76766;BME280;65707;52.362;6.588;2024-02-26T11:43:06;100729.09;;;7.47;80.33
76766;BME280;65707;52.362;6.588;2024-02-26T11:45:49;100725.06;;;7.61;79.38
76766;BME280;65707;52.362;6.588;2024-02-26T11:48:24;100720.88;;;7.58;79.63
76766;BME280;65707;52.362;6.588;2024-02-26T11:50:52;100721.38;;;7.62;80.32
76766;BME280;65707;52.362;6.588;2024-02-26T11:53:22;100724.44;;;7.67;79.59
76766;BME280;65707;52.362;6.588;2024-02-26T11:56:13;100725.44;;;7.66;79.57
76766;BME280;65707;52.362;6.588;2024-02-26T11:58:46;100726.28;;;7.66;80.21
76766;BME280;65707;52.362;6.588;2024-02-26T12:01:37;100715.31;;;7.69;78.69
76766;BME280;65707;52.362;6.588;2024-02-26T12:04:19;100718.94;;;7.68;78.91
76766;BME280;65707;52.362;6.588;2024-02-26T12:06:51;100714.31;;;7.70;78.78
76766;BME280;65707;52.362;6.588;2024-02-26T12:09:36;100726.88;;;7.78;78.00
76766;BME280;65707;52.362;6.588;2024-02-26T12:12:05;100723.75;;;7.82;78.13
76766;BME280;65707;52.362;6.588;2024-02-26T12:14:34;100722.84;;;7.92;77.58
76766;BME280;65707;52.362;6.588;2024-02-26T12:17:04;100727.34;;;7.91;77.73
76766;BME280;65707;52.362;6.588;2024-02-26T12:19:34;100727.03;;;7.94;77.07
76766;BME280;65707;52.362;6.588;2024-02-26T12:22:02;100738.09;;;7.81;77.17
76766;BME280;65707;52.362;6.588;2024-02-26T12:24:30;100736.06;;;7.75;77.25
76766;BME280;65707;52.362;6.588;2024-02-26T12:26:56;100741.63;;;7.82;78.03
76766;BME280;65707;52.362;6.588;2024-02-26T12:29:23;100745.97;;;8.01;76.58
76766;BME280;65707;52.362;6.588;2024-02-26T12:31:50;100758.16;;;8.03;76.96
76766;BME280;65707;52.362;6.588;2024-02-26T12:34:17;100749.16;;;8.04;76.91
76766;BME280;65707;52.362;6.588;2024-02-26T12:36:46;100745.16;;;8.08;76.64
76766;BME280;65707;52.362;6.588;2024-02-26T12:39:15;100754.81;;;8.01;76.15
76766;BME280;65707;52.362;6.588;2024-02-26T12:41:42;100754.41;;;8.14;75.95
76766;BME280;65707;52.362;6.588;2024-02-26T12:44:14;100760.81;;;8.21;76.15
76766;BME280;65707;52.362;6.588;2024-02-26T12:46:41;100759.44;;;8.17;76.49
76766;BME280;65707;52.362;6.588;2024-02-26T12:49:08;100757.19;;;8.47;74.58
76766;BME280;65707;52.362;6.588;2024-02-26T12:51:35;100758.88;;;8.48;73.85
76766;BME280;65707;52.362;6.588;2024-02-26T12:54:03;100759.16;;;8.37;73.98
76766;BME280;65707;52.362;6.588;2024-02-26T12:56:30;100752.09;;;8.36;74.75
76766;BME280;65707;52.362;6.588;2024-02-26T12:58:58;100759.44;;;8.34;73.96
76766;BME280;65707;52.362;6.588;2024-02-26T13:01:26;100765.22;;;8.47;74.41
76766;BME280;65707;52.362;6.588;2024-02-26T13:03:54;100762.78;;;8.36;74.05